Time;durP1;ratioP1;P1;durP2;ratioP2;P2;SDS_P1;SDS_P2;PMS_P1;PMS_P2;Temp;Humidity;BMP_temperature;BMP_pressure;BME280_temperature;BME280_humidity;BME280_pressure;Samples;Min_cycle;Max_cycle;Signal;HPM_P1;HPM_P2
2022/05/25 00:02:06;;;;;;;5.43;4.20;;;;;;;20.03;51.65;101018.78;5065942;28;20438;-56
2022/05/25 00:04:33;;;;;;;4.93;4.25;;;;;;;19.47;53.18;101021.41;5066267;28;20438;-55
2022/05/25 00:07:00;;;;;;;5.93;4.53;;;;;;;19.46;53.58;101006.31;5066101;28;20408;-58
2022/05/25 00:09:27;;;;;;;5.88;4.43;;;;;;;19.58;53.41;101011.78;5057582;28;20423;-58
2022/05/25 00:11:54;;;;;;;5.63;4.30;;;;;;;19.46;53.62;101014.38;5065803;28;20412;-56
2022/05/25 00:14:23;;;;;;;5.47;4.30;;;;;;;19.21;54.30;101011.72;5066190;28;20422;-56
2022/05/25 00:16:50;;;;;;;5.60;3.92;;;;;;;19.59;53.73;101015.28;5065709;28;20412;-56
2022/05/25 00:22:01;;;;;;;4.80;4.00;;;;;;;19.48;53.92;101006.06;5065803;28;20438;-56
2022/05/25 00:24:28;;;;;;;5.82;4.60;;;;;;;19.38;54.33;101016.53;5065531;28;20412;-56
2022/05/25 00:26:55;;;;;;;4.97;4.45;;;;;;;19.57;53.69;101007.47;5065741;28;20420;-56
2022/05/25 00:29:23;;;;;;;5.22;4.63;;;;;;;19.47;53.85;101005.25;5065435;28;20905;-56
2022/05/25 00:31:50;;;;;;;5.93;4.82;;;;;;;19.34;54.36;101000.03;5065164;28;20423;-56
2022/05/25 00:34:17;;;;;;;5.95;4.93;;;;;;;19.40;54.30;101007.19;5051616;28;20411;-55
2022/05/25 00:36:44;;;;;;;6.97;4.80;;;;;;;19.14;55.02;101010.09;5052317;28;20412;-59
2022/05/25 00:39:12;;;;;;;6.82;4.95;;;;;;;19.13;55.16;101011.97;5052752;28;20462;-56
2022/05/25 00:41:39;;;;;;;6.60;4.93;;;;;;;19.27;54.84;101018.06;5051803;28;20938;-56
2022/05/25 00:44:08;;;;;;;5.72;4.70;;;;;;;19.20;54.97;101014.63;5052064;28;20786;-58
2022/05/25 00:46:38;;;;;;;5.68;4.60;;;;;;;19.01;55.51;101013.72;5051954;28;20925;-58
2022/05/25 00:49:07;;;;;;;5.78;4.50;;;;;;;18.97;55.54;101010.66;5052207;28;20418;-55
2022/05/25 00:52:09;;;;;;;6.50;5.00;;;;;;;19.12;55.17;101012.19;5124533;27;20460;-58
2022/05/25 00:54:42;;;;;;;5.03;4.53;;;;;;;19.33;54.44;101017.19;5107200;28;20413;-58
2022/05/25 00:57:12;;;;;;;6.10;4.50;;;;;;;19.39;54.15;101024.38;5106921;28;20421;-59
2022/05/25 00:59:57;;;;;;;5.40;4.88;;;;;;;19.21;54.50;101016.25;5107517;28;20409;-58
2022/05/25 01:02:24;;;;;;;6.85;5.28;;;;;;;18.93;55.31;101027.44;5107275;28;20417;-58
2022/05/25 01:04:51;;;;;;;5.82;5.15;;;;;;;19.18;54.77;101027.47;5106683;28;20482;-58
2022/05/25 01:07:36;;;;;;;6.03;5.10;;;;;;;19.20;54.66;101028.88;5107026;28;20794;-58
2022/05/25 01:10:16;;;;;;;5.43;4.93;;;;;;;19.22;54.70;101034.03;5107226;28;20424;-58
2022/05/25 01:13:07;;;;;;;6.00;4.70;;;;;;;19.37;54.05;101037.19;5106618;28;20416;-58
2022/05/25 01:15:44;;;;;;;5.57;4.82;;;;;;;19.41;53.57;101037.56;5106530;28;20415;-58
2022/05/25 01:18:21;;;;;;;6.17;4.20;;;;;;;19.38;53.47;101038.03;5106826;28;20802;-58
2022/05/25 01:20:51;;;;;;;6.03;4.50;;;;;;;19.30;53.34;101041.81;5107140;28;20404;-58
2022/05/25 01:23:51;;;;;;;5.30;4.13;;;;;;;19.42;52.97;101045.44;5106732;28;20412;-58
2022/05/25 01:26:38;;;;;;;8.10;4.40;;;;;;;19.37;52.68;101045.25;5086772;28;20472;-57
2022/05/25 01:29:13;;;;;;;4.77;4.13;;;;;;;19.32;52.91;101047.81;5106016;28;20417;-58
2022/05/25 01:31:48;;;;;;;4.65;4.00;;;;;;;19.42;52.56;101048.13;5105694;28;20435;-58
2022/05/25 01:34:24;;;;;;;5.53;3.95;;;;;;;19.32;52.71;101045.13;5106032;28;20951;-57
2022/05/25 01:37:07;;;;;;;6.22;4.28;;;;;;;19.24;52.72;101051.56;5106738;28;20456;-57
2022/05/25 01:39:37;;;;;;;5.43;4.03;;;;;;;19.31;52.54;101054.22;5106364;28;20910;-58
2022/05/25 01:42:10;;;;;;;5.45;4.32;;;;;;;19.32;52.40;101050.50;5106378;28;20446;-58
2022/05/25 01:44:42;;;;;;;4.93;4.32;;;;;;;19.25;52.72;101063.97;5106363;28;20416;-58
2022/05/25 01:47:11;;;;;;;5.47;4.30;;;;;;;19.25;52.72;101058.59;5106192;28;21005;-58
2022/05/25 01:49:45;;;;;;;4.90;4.40;;;;;;;19.19;52.97;101067.53;5106036;28;20786;-57
2022/05/25 01:52:16;;;;;;;4.70;3.85;;;;;;;19.20;52.66;101074.56;5106032;28;20424;-57
2022/05/25 01:54:50;;;;;;;6.70;4.30;;;;;;;19.19;52.75;101072.91;5105762;28;20416;-58
2022/05/25 01:57:22;;;;;;;5.78;4.32;;;;;;;19.16;52.95;101076.03;5105731;28;20945;-58
2022/05/25 01:59:49;;;;;;;5.25;4.75;;;;;;;19.21;52.94;101080.75;5106334;28;20457;-58
2022/05/25 02:05:08;;;;;;;5.20;4.50;;;;;;;19.06;53.21;101078.38;5092098;28;20857;-57
2022/05/25 02:07:52;;;;;;;6.22;4.40;;;;;;;18.98;53.59;101074.09;5092263;28;20401;-58
2022/05/25 02:10:41;;;;;;;4.93;4.07;;;;;;;18.97;53.45;101077.00;5092507;28;20412;-57
2022/05/25 02:13:23;;;;;;;5.60;4.50;;;;;;;18.96;53.59;101067.28;5091891;28;20428;-57
2022/05/25 02:16:06;;;;;;;5.53;4.50;;;;;;;18.88;53.55;101069.19;5092194;28;20413;-58
2022/05/25 02:18:42;;;;;;;5.32;4.40;;;;;;;18.91;53.47;101074.13;5092035;28;20818;-58
2022/05/25 02:21:17;;;;;;;6.13;4.38;;;;;;;18.81;54.06;101068.41;5092102;28;20440;-57
2022/05/25 02:23:51;;;;;;;5.20;4.70;;;;;;;18.72;54.53;101067.00;5091129;28;20424;-58
2022/05/25 02:26:23;;;;;;;6.43;4.55;;;;;;;18.80;54.01;101069.44;5091982;28;20415;-58
2022/05/25 02:29:00;;;;;;;5.25;4.38;;;;;;;18.86;53.98;101071.28;5091616;28;20810;-57
2022/05/25 02:31:32;;;;;;;6.65;4.50;;;;;;;18.82;54.06;101075.44;5091861;28;20424;-57
2022/05/25 02:34:04;;;;;;;6.70;4.97;;;;;;;18.87;53.96;101083.69;5091850;28;20504;-58
2022/05/25 02:36:35;;;;;;;5.07;4.68;;;;;;;18.94;53.83;101085.50;5091743;28;20924;-57
2022/05/25 02:39:05;;;;;;;5.82;4.70;;;;;;;18.84;53.98;101086.78;5091776;28;20410;-58
2022/05/25 02:41:35;;;;;;;5.68;4.40;;;;;;;18.89;53.78;101088.84;5091612;28;20415;-57
2022/05/25 02:44:04;;;;;;;6.60;4.40;;;;;;;18.93;53.57;101086.53;5091445;28;20470;-57
2022/05/25 02:46:31;;;;;;;7.13;4.38;;;;;;;18.96;53.45;101095.00;5091584;28;20914;-58
2022/05/25 02:48:58;;;;;;;5.10;4.60;;;;;;;18.87;53.63;101093.56;5091467;28;20413;-58
2022/05/25 02:51:26;;;;;;;5.55;4.50;;;;;;;18.78;53.96;101094.84;5091614;28;20429;-58
2022/05/25 02:53:53;;;;;;;4.83;4.30;;;;;;;18.86;53.44;101100.00;5091064;28;20409;-58
2022/05/25 02:56:20;;;;;;;9.00;4.80;;;;;;;18.79;53.54;101108.06;5091673;28;20415;-58
2022/05/25 02:58:47;;;;;;;5.25;4.10;;;;;;;18.72;53.71;101110.78;5090739;28;20465;-57
2022/05/25 03:01:14;;;;;;;9.98;4.50;;;;;;;18.53;54.24;101112.53;5091052;28;20413;-58
2022/05/25 03:03:41;;;;;;;6.47;4.43;;;;;;;18.60;53.87;101109.81;5091015;28;20421;-57
2022/05/25 03:06:09;;;;;;;6.05;4.50;;;;;;;18.50;54.17;101112.13;5091125;28;20424;-58
2022/05/25 03:08:37;;;;;;;5.90;4.50;;;;;;;18.61;53.95;101108.78;5091144;28;20413;-57
2022/05/25 03:11:05;;;;;;;4.90;4.38;;;;;;;18.71;53.52;101114.50;5090957;28;20428;-58
2022/05/25 03:13:33;;;;;;;4.65;4.20;;;;;;;18.72;53.61;101113.47;5089484;28;20418;-58
2022/05/25 03:16:01;;;;;;;6.38;4.20;;;;;;;18.71;53.34;101113.69;5091270;28;20417;-57
2022/05/25 03:18:28;;;;;;;4.90;4.40;;;;;;;18.84;53.20;101115.50;5090985;28;20937;-58
2022/05/25 03:20:55;;;;;;;6.10;4.38;;;;;;;18.87;53.33;101115.91;5090948;28;20421;-57
2022/05/25 03:23:22;;;;;;;6.18;4.43;;;;;;;18.88;53.29;101122.09;5090429;28;20932;-58
2022/05/25 03:25:50;;;;;;;5.68;4.60;;;;;;;18.96;53.02;101121.88;5091188;28;20416;-57
2022/05/25 03:28:17;;;;;;;8.07;4.40;;;;;;;18.83;53.24;101128.09;5090425;28;20417;-57
2022/05/25 03:30:47;;;;;;;5.90;4.93;;;;;;;18.96;52.85;101129.06;5090399;28;20429;-58
2022/05/25 03:33:14;;;;;;;5.28;4.13;;;;;;;18.97;52.79;101128.03;5101947;28;20403;-58
2022/05/25 03:35:42;;;;;;;5.85;4.63;;;;;;;18.86;53.08;101132.25;5111315;28;20481;-58
2022/05/25 03:38:08;;;;;;;8.13;4.47;;;;;;;19.04;52.72;101129.66;5092684;28;20417;-58
2022/05/25 03:40:36;;;;;;;6.82;4.78;;;;;;;19.06;52.96;101141.00;5090172;28;20496;-58
2022/05/25 03:43:05;;;;;;;5.23;4.53;;;;;;;19.21;52.18;101139.88;5090643;28;20419;-58
2022/05/25 03:45:33;;;;;;;6.20;4.60;;;;;;;19.17;52.23;101147.56;5090780;28;20415;-58
2022/05/25 03:47:59;;;;;;;7.43;4.65;;;;;;;19.34;52.02;101144.34;5090376;28;20409;-58
2022/05/25 03:50:27;;;;;;;6.70;4.45;;;;;;;19.33;52.22;101146.22;5090631;28;20410;-58
2022/05/25 03:52:54;;;;;;;7.35;4.35;;;;;;;19.38;52.05;101146.38;5089827;28;21025;-57
2022/05/25 03:55:21;;;;;;;7.22;4.70;;;;;;;19.29;52.03;101150.38;5089621;28;20417;-57
2022/05/25 03:57:48;;;;;;;5.50;4.20;;;;;;;19.29;52.01;101143.13;5089651;28;20934;-58
2022/05/25 04:00:17;;;;;;;5.60;4.53;;;;;;;19.44;52.01;101140.13;5088047;28;20416;-56
2022/05/25 04:03:24;;;;;;;6.72;4.70;;;;;;;19.51;51.76;101141.97;5087087;27;2057548;-57
2022/05/25 04:05:51;;;;;;;6.50;4.57;;;;;;;19.60;51.64;101144.13;5141503;27;20929;-57
2022/05/25 04:08:18;;;;;;;7.80;4.85;;;;;;;19.72;51.42;101149.66;5143947;27;20423;-58
2022/05/25 04:10:45;;;;;;;8.13;4.97;;;;;;;19.72;51.54;101160.41;5148413;27;20406;-58
2022/05/25 04:13:12;;;;;;;6.57;4.88;;;;;;;19.98;50.88;101159.34;5144352;27;20415;-58
2022/05/25 04:15:39;;;;;;;5.55;4.68;;;;;;;20.08;50.80;101166.09;5148055;27;20413;-58
2022/05/25 04:18:06;;;;;;;6.47;4.80;;;;;;;20.15;50.34;101165.00;5138768;27;20406;-58
2022/05/25 04:20:35;;;;;;;7.28;4.40;;;;;;;20.38;50.10;101168.91;5146715;27;20408;-58
2022/05/25 04:23:02;;;;;;;6.32;4.68;;;;;;;20.45;49.92;101161.56;5147616;27;20934;-58
2022/05/25 04:25:29;;;;;;;7.50;4.70;;;;;;;20.57;49.76;101159.78;5147936;27;20982;-58
2022/05/25 04:27:58;;;;;;;6.15;4.80;;;;;;;20.78;49.42;101157.69;5139407;27;20930;-58
2022/05/25 04:30:27;;;;;;;6.33;5.43;;;;;;;20.78;49.17;101160.41;5147771;27;20410;-58
2022/05/25 04:32:54;;;;;;;7.13;5.32;;;;;;;21.00;48.84;101153.44;5134824;27;20417;-58
2022/05/25 04:35:22;;;;;;;8.73;5.75;;;;;;;21.19;48.42;101161.47;5147830;27;21176;-58
2022/05/25 04:37:53;;;;;;;6.80;5.22;;;;;;;21.17;48.24;101163.56;5143877;27;20788;-58
2022/05/25 04:40:25;;;;;;;10.43;5.70;;;;;;;21.25;47.97;101155.19;5141331;27;20401;-57
2022/05/25 04:42:53;;;;;;;8.10;5.40;;;;;;;21.25;48.13;101141.69;5140792;27;20436;-57
2022/05/25 04:45:20;;;;;;;6.78;5.18;;;;;;;21.51;47.59;101153.16;5147224;27;20796;-58
2022/05/25 04:47:48;;;;;;;7.43;4.70;;;;;;;21.53;47.19;101157.25;5147288;27;20813;-58
2022/05/25 04:50:17;;;;;;;7.83;4.80;;;;;;;21.68;46.76;101162.22;5147561;27;20891;-58
2022/05/25 04:52:44;;;;;;;5.07;4.45;;;;;;;21.81;46.67;101171.97;5147185;27;20409;-58
2022/05/25 04:57:19;;;;;;;6.53;4.53;;;;;;;21.88;46.57;101171.84;5147363;27;20401;-58
2022/05/25 04:58:00;;;;;;;7.78;4.28;;;;;;;21.89;46.43;101170.78;5146929;27;20902;-58
2022/05/25 05:00:27;;;;;;;5.05;4.13;;;;;;;22.05;46.17;101166.56;5147634;27;20413;-58
2022/05/25 05:02:54;;;;;;;5.50;4.57;;;;;;;21.92;45.83;101170.31;5136009;27;20431;-58
2022/05/25 05:05:21;;;;;;;5.50;4.20;;;;;;;21.75;46.26;101173.72;5124985;28;20422;-58
2022/05/25 05:07:48;;;;;;;4.60;4.13;;;;;;;22.29;45.31;101178.19;5125413;28;20876;-58
2022/05/25 05:10:16;;;;;;;6.30;4.90;;;;;;;22.42;44.71;101183.34;5125923;28;20414;-58
2022/05/25 05:12:44;;;;;;;5.82;4.30;;;;;;;22.56;44.57;101170.38;5130014;27;20417;-58
2022/05/25 05:15:12;;;;;;;6.25;4.20;;;;;;;22.45;44.48;101180.16;5133371;27;20412;-58
2022/05/25 05:17:39;;;;;;;5.03;4.05;;;;;;;22.18;44.98;101179.81;5124287;27;20414;-58
2022/05/25 05:20:07;;;;;;;5.70;4.20;;;;;;;22.49;44.34;101178.63;5112585;28;20408;-58
2022/05/25 05:22:34;;;;;;;7.38;4.47;;;;;;;22.71;43.91;101172.59;5112803;28;20429;-58
2022/05/25 05:25:01;;;;;;;7.13;4.13;;;;;;;22.78;43.46;101180.53;5112751;28;20415;-58
2022/05/25 05:27:30;;;;;;;5.07;4.33;;;;;;;22.71;43.11;101169.88;5114014;27;20445;-58
2022/05/25 05:30:00;;;;;;;6.10;4.35;;;;;;;23.05;42.97;101170.84;5112716;28;20411;-58
2022/05/25 05:32:27;;;;;;;6.20;4.23;;;;;;;23.03;42.87;101164.84;5112213;28;20418;-58
2022/05/25 05:34:54;;;;;;;5.55;3.85;;;;;;;23.08;42.93;101148.75;5112285;28;20924;-58
2022/05/25 05:37:27;;;;;;;5.78;4.20;;;;;;;22.90;43.56;101154.28;5112569;28;20411;-58
2022/05/25 05:39:57;;;;;;;8.60;5.00;;;;;;;23.26;43.01;101145.00;5112203;28;20897;-58
2022/05/25 05:42:25;;;;;;;7.38;4.35;;;;;;;23.08;43.02;101139.78;5112656;28;20434;-58
2022/05/25 05:44:58;;;;;;;6.68;4.43;;;;;;;22.91;43.59;101145.94;5131772;27;20915;-58
2022/05/25 05:47:28;;;;;;;6.90;4.40;;;;;;;23.06;43.30;101144.63;5128904;27;20413;-58
2022/05/25 05:49:56;;;;;;;7.63;4.40;;;;;;;23.52;42.59;101156.25;5112503;28;20433;-58
2022/05/25 05:52:23;;;;;;;6.13;4.30;;;;;;;23.21;43.48;101155.72;5112986;27;20450;-58
2022/05/25 05:54:50;;;;;;;4.65;4.20;;;;;;;23.59;43.03;101169.63;5111940;28;20437;-58
2022/05/25 05:57:17;;;;;;;5.38;4.88;;;;;;;23.52;42.76;101186.00;5113289;27;20426;-58
2022/05/25 05:59:44;;;;;;;6.82;4.80;;;;;;;23.44;42.99;101198.06;5115802;27;20479;-58
2022/05/25 06:02:12;;;;;;;5.28;4.78;;;;;;;23.42;42.83;101202.06;5132523;27;20425;-58
2022/05/25 06:04:39;;;;;;;5.65;5.10;;;;;;;23.51;42.59;101194.38;5132698;27;20409;-58
2022/05/25 06:07:06;;;;;;;5.60;4.70;;;;;;;23.65;42.34;101201.09;5132385;27;20410;-58
2022/05/25 06:09:33;;;;;;;6.30;4.40;;;;;;;24.50;41.21;101206.44;5132509;27;20406;-59
2022/05/25 06:12:00;;;;;;;16.50;4.85;;;;;;;25.13;40.19;101210.44;5127593;27;20416;-59
2022/05/25 06:14:27;;;;;;;5.53;4.28;;;;;;;25.76;38.83;101218.94;5111854;28;20425;-59
2022/05/25 06:19:40;;;;;;;16.42;4.90;;;;;;;26.04;38.24;101222.44;5111453;28;20410;-59
2022/05/25 06:22:10;;;;;;;12.10;4.88;;;;;;;26.08;37.83;101226.25;5111442;28;20434;-59
2022/05/25 06:24:40;;;;;;;8.05;4.00;;;;;;;26.92;36.59;101228.31;5111725;27;20407;-59
2022/05/25 06:27:10;;;;;;;9.83;4.60;;;;;;;27.23;35.88;101226.50;5111793;27;20792;-58
2022/05/25 06:29:38;;;;;;;7.88;4.78;;;;;;;27.08;35.73;101214.50;5111331;28;20407;-59
2022/05/25 06:32:07;;;;;;;4.90;4.40;;;;;;;27.64;34.90;101204.78;5111185;28;20411;-59
2022/05/25 06:34:34;;;;;;;5.13;4.53;;;;;;;27.58;34.89;101194.97;5111227;28;20416;-59
2022/05/25 06:37:02;;;;;;;5.55;4.57;;;;;;;27.63;35.25;101187.63;5116292;27;20414;-59
2022/05/25 06:39:29;;;;;;;7.50;4.63;;;;;;;27.89;34.77;101170.44;5116614;27;20435;-59
2022/05/25 06:41:56;;;;;;;7.88;4.60;;;;;;;26.08;37.49;101177.34;5123990;27;20414;-59
2022/05/25 06:44:23;;;;;;;7.82;5.10;;;;;;;26.02;37.85;101175.69;5119300;27;20414;-59
2022/05/25 06:46:51;;;;;;;6.85;4.35;;;;;;;25.91;38.09;101180.22;5110658;28;20440;-58
2022/05/25 06:49:18;;;;;;;4.80;4.30;;;;;;;26.21;37.54;101183.41;5115789;27;20449;-59
2022/05/25 06:51:45;;;;;;;4.75;4.20;;;;;;;26.15;37.75;101200.78;5110777;27;20909;-58
2022/05/25 06:54:16;;;;;;;6.35;4.72;;;;;;;25.74;38.50;101191.22;5131377;27;20405;-59
2022/05/25 06:56:43;;;;;;;5.70;4.33;;;;;;;25.65;38.84;101190.06;5131010;27;20421;-59
2022/05/25 06:59:10;;;;;;;5.50;4.22;;;;;;;25.26;39.50;101176.69;5130229;27;20733;-57
2022/05/25 07:01:39;;;;;;;5.70;4.63;;;;;;;24.73;40.57;101189.13;5131274;27;20414;-58
2022/05/25 07:04:07;;;;;;;6.22;5.00;;;;;;;24.19;41.85;101178.94;5131344;27;20513;-58
2022/05/25 07:06:36;;;;;;;6.00;4.80;;;;;;;24.56;41.28;101184.59;5131025;27;20899;-59
2022/05/25 07:09:04;;;;;;;6.37;4.60;;;;;;;24.37;41.67;101192.16;5130842;27;20409;-59
2022/05/25 07:11:33;;;;;;;8.02;5.40;;;;;;;24.38;41.61;101199.25;5130451;27;20410;-59
2022/05/25 07:14:00;;;;;;;6.25;5.22;;;;;;;24.83;40.91;101201.97;5130106;27;20414;-59
2022/05/25 07:16:28;;;;;;;6.03;4.65;;;;;;;25.18;40.50;101190.69;5130094;27;20412;-57
2022/05/25 07:18:55;;;;;;;6.75;5.03;;;;;;;24.96;40.53;101196.19;5131076;27;20413;-57
2022/05/25 07:21:25;;;;;;;7.72;5.43;;;;;;;25.07;40.48;101203.34;5130727;27;20406;-57
2022/05/25 07:23:54;;;;;;;7.55;5.05;;;;;;;25.29;40.54;101195.19;5130640;27;20428;-57
2022/05/25 07:26:22;;;;;;;7.87;5.47;;;;;;;25.17;41.06;101191.75;5130744;27;20462;-57
2022/05/25 07:28:52;;;;;;;6.82;5.28;;;;;;;24.89;40.85;101196.38;5130670;27;20868;-57
2022/05/25 07:31:22;;;;;;;5.80;5.10;;;;;;;24.56;41.66;101209.00;5130596;27;20934;-57
2022/05/25 07:33:54;;;;;;;5.07;4.57;;;;;;;24.55;42.36;101196.50;5130552;27;20409;-58
2022/05/25 07:36:22;;;;;;;5.90;4.53;;;;;;;25.05;41.53;101188.38;5130509;27;20413;-58
2022/05/25 07:38:51;;;;;;;8.40;5.25;;;;;;;25.11;40.85;101180.06;5130863;27;20410;-58
2022/05/25 07:41:19;;;;;;;7.20;4.53;;;;;;;25.17;41.33;101183.63;5130455;27;20925;-58
2022/05/25 07:43:47;;;;;;;9.73;4.22;;;;;;;25.36;41.01;101181.41;5130444;27;20430;-57
2022/05/25 07:46:16;;;;;;;5.93;4.22;;;;;;;25.62;40.61;101184.34;5130353;27;20413;-58
2022/05/25 07:48:43;;;;;;;6.65;4.50;;;;;;;25.56;40.59;101199.75;5130333;27;20760;-59
2022/05/25 07:51:10;;;;;;;5.57;4.75;;;;;;;25.06;41.29;101198.97;5130398;27;20414;-58
2022/05/25 07:56:21;;;;;;;5.63;4.60;;;;;;;25.06;41.36;101201.69;5130564;27;20451;-58
2022/05/25 07:58:48;;;;;;;4.97;4.50;;;;;;;24.28;42.63;101223.47;5130254;27;20471;-58
2022/05/25 08:01:19;;;;;;;5.90;4.60;;;;;;;23.91;43.39;101217.78;5130435;28;20410;-56
2022/05/25 08:06:33;;;;;;;5.60;4.50;;;;;;;24.52;42.33;101212.41;5130481;28;20775;-58
2022/05/25 08:09:00;;;;;;;6.88;4.80;;;;;;;24.83;41.91;101212.81;5130041;28;20416;-58
2022/05/25 08:11:29;;;;;;;5.28;4.43;;;;;;;25.18;41.29;101221.34;5129883;28;20921;-58
2022/05/25 08:13:57;;;;;;;6.35;4.13;;;;;;;25.10;41.95;101224.53;5130264;28;20409;-57
2022/05/25 08:16:26;;;;;;;5.00;4.50;;;;;;;25.28;41.33;101222.56;5130585;28;20477;-58
2022/05/25 08:18:53;;;;;;;6.82;4.07;;;;;;;24.96;42.13;101220.59;5130074;28;20906;-58
2022/05/25 08:21:19;;;;;;;5.00;4.07;;;;;;;25.15;41.86;101223.75;5130298;28;20459;-58
2022/05/25 08:23:46;;;;;;;5.67;3.97;;;;;;;24.99;42.17;101230.91;5129949;28;20512;-58
2022/05/25 08:26:13;;;;;;;4.30;3.90;;;;;;;25.04;42.03;101232.88;5130247;28;20417;-57
2022/05/25 08:28:40;;;;;;;5.57;4.45;;;;;;;24.12;43.58;101227.03;5130124;28;20598;-58
2022/05/25 08:31:07;;;;;;;5.63;4.30;;;;;;;24.75;42.29;101219.53;5130262;28;20405;-58
2022/05/25 08:33:35;;;;;;;5.68;3.92;;;;;;;24.97;42.11;101222.22;5130234;28;20402;-58
2022/05/25 08:36:02;;;;;;;5.40;4.07;;;;;;;24.76;42.48;101218.47;5130218;28;21263;-58
2022/05/25 08:38:29;;;;;;;6.32;4.45;;;;;;;24.35;43.28;101210.56;5129890;28;20911;-58
2022/05/25 08:40:58;;;;;;;5.28;4.28;;;;;;;24.38;42.84;101223.63;5129909;28;20903;-58
2022/05/25 08:43:30;;;;;;;6.07;4.13;;;;;;;24.79;42.68;101223.34;5130158;28;20430;-57
2022/05/25 08:45:59;;;;;;;4.53;4.10;;;;;;;24.52;42.87;101209.72;5129926;28;20410;-57
2022/05/25 08:48:28;;;;;;;4.32;3.92;;;;;;;24.73;42.66;101208.13;5130475;27;20410;-57
2022/05/25 08:51:02;;;;;;;4.60;4.13;;;;;;;24.45;43.11;101200.94;5133695;27;20899;-57
2022/05/25 08:53:30;;;;;;;5.30;3.78;;;;;;;24.34;43.50;101205.41;5133415;27;20406;-57
2022/05/25 08:56:02;;;;;;;5.57;4.30;;;;;;;24.48;43.01;101212.09;5131849;27;20781;-57
2022/05/25 08:58:39;;;;;;;4.63;4.07;;;;;;;24.93;42.32;101199.41;5131807;27;20497;-58
2022/05/25 09:01:07;;;;;;;5.13;4.63;;;;;;;25.17;42.14;101203.47;5131880;27;20424;-57
2022/05/25 09:03:45;;;;;;;6.05;3.95;;;;;;;25.37;41.82;101211.00;5133243;27;20431;-57
2022/05/25 09:06:27;;;;;;;3.70;3.28;;;;;;;25.54;41.73;101223.63;5133395;27;20412;-57
2022/05/25 09:09:00;;;;;;;4.07;3.60;;;;;;;25.13;42.17;101220.50;5133674;27;20521;-57
2022/05/25 09:11:34;;;;;;;5.78;4.10;;;;;;;24.86;41.84;101218.56;5133278;27;20428;-57
2022/05/25 09:14:07;;;;;;;4.38;3.83;;;;;;;25.20;41.78;101212.97;5133551;27;20406;-58
2022/05/25 09:16:36;;;;;;;5.15;3.95;;;;;;;24.74;42.29;101207.03;5133499;27;20413;-57
2022/05/25 09:19:09;;;;;;;5.50;3.80;;;;;;;25.24;41.96;101200.56;5133526;27;20412;-57
2022/05/25 09:21:45;;;;;;;4.78;3.90;;;;;;;25.18;42.16;101198.84;5133388;27;20406;-57
2022/05/25 09:24:18;;;;;;;5.65;3.95;;;;;;;25.53;41.71;101216.56;5132777;27;20853;-57
2022/05/25 09:26:45;;;;;;;4.90;4.20;;;;;;;25.37;42.28;101212.88;5133331;27;20504;-57
2022/05/25 09:29:12;;;;;;;4.37;3.97;;;;;;;25.05;42.45;101210.91;5132950;27;20772;-57
2022/05/25 09:31:44;;;;;;;4.85;3.85;;;;;;;24.99;42.90;101198.34;5133270;27;20410;-57
2022/05/25 09:34:17;;;;;;;5.30;3.63;;;;;;;25.50;42.19;101182.63;5132939;27;21017;-57
2022/05/25 09:36:50;;;;;;;5.32;3.80;;;;;;;25.48;41.72;101187.50;5132863;27;20405;-57
2022/05/25 09:39:24;;;;;;;4.18;3.55;;;;;;;25.34;42.11;101191.69;5133070;27;20406;-57
2022/05/25 09:41:56;;;;;;;4.40;3.47;;;;;;;25.00;42.40;101194.59;5132968;27;20405;-57
2022/05/25 09:44:24;;;;;;;5.03;3.60;;;;;;;25.47;41.78;101185.03;5132522;27;20422;-57
2022/05/25 09:46:54;;;;;;;4.78;3.35;;;;;;;25.39;41.49;101178.19;5133054;27;20405;-57
2022/05/25 09:49:35;;;;;;;4.80;3.50;;;;;;;25.25;41.68;101174.25;5132603;27;20406;-58
2022/05/25 09:52:07;;;;;;;4.85;3.40;;;;;;;25.59;41.72;101171.25;5132777;27;20402;-57
2022/05/25 09:54:40;;;;;;;4.35;3.60;;;;;;;25.46;41.50;101172.53;5132779;27;20405;-57
2022/05/25 09:57:13;;;;;;;4.57;3.22;;;;;;;25.60;40.75;101164.78;5132442;27;20409;-57
2022/05/25 09:59:44;;;;;;;6.10;3.30;;;;;;;25.68;40.44;101162.41;5132359;27;20409;-57
2022/05/25 10:02:28;;;;;;;5.13;3.05;;;;;;;25.82;40.71;101151.91;5132885;27;20441;-57
2022/05/25 10:04:56;;;;;;;5.28;3.13;;;;;;;25.98;40.81;101147.41;5132092;27;20428;-58
2022/05/25 10:07:31;;;;;;;3.28;2.97;;;;;;;26.05;40.25;101147.19;5132619;27;20509;-58
2022/05/25 10:10:01;;;;;;;5.72;2.80;;;;;;;25.95;40.35;101147.94;5132160;27;20417;-58
2022/05/25 10:12:31;;;;;;;4.60;3.17;;;;;;;25.91;40.33;101146.78;5132204;27;20405;-58
2022/05/25 10:15:01;;;;;;;4.03;3.15;;;;;;;25.96;40.47;101143.31;5132052;27;20420;-58
2022/05/25 10:17:36;;;;;;;5.63;2.95;;;;;;;25.89;40.38;101146.22;5132082;27;20410;-58
2022/05/25 10:20:06;;;;;;;3.88;2.63;;;;;;;25.56;41.24;101146.28;5132529;27;20410;-57
2022/05/25 10:22:38;;;;;;;5.05;3.30;;;;;;;25.45;40.93;101139.13;5132082;27;20405;-58
2022/05/25 10:25:08;;;;;;;3.75;3.10;;;;;;;25.58;40.72;101140.59;5131840;27;20432;-58
2022/05/25 10:27:39;;;;;;;3.67;2.80;;;;;;;25.78;40.20;101137.19;5131905;27;20409;-57
2022/05/25 10:38:48;;;;;;;6.20;3.17;;;;;;;26.02;40.30;101123.25;5131816;27;20489;-57
2022/05/25 10:44:08;;;;;;;5.95;3.20;;;;;;;26.16;40.00;101120.88;5131580;27;20432;-56
2022/05/25 10:46:38;;;;;;;4.65;2.92;;;;;;;26.06;40.16;101118.94;5131535;27;20413;-56
2022/05/25 10:49:16;;;;;;;4.03;3.22;;;;;;;26.00;40.17;101111.81;5131430;27;21016;-57
2022/05/25 10:51:50;;;;;;;4.67;3.30;;;;;;;26.23;39.94;101116.00;5131749;27;20895;-58
2022/05/25 10:57:34;;;;;;;3.92;3.13;;;;;;;26.33;40.49;101114.16;5131426;27;20433;-58
2022/05/25 11:00:05;;;;;;;3.45;2.80;;;;;;;26.38;40.02;101118.81;5127232;27;20418;-57
2022/05/25 11:02:46;;;;;;;3.40;2.67;;;;;;;26.57;39.54;101121.84;5131749;27;20416;-58
2022/05/25 11:05:24;;;;;;;4.85;2.88;;;;;;;26.00;40.00;101123.53;5131069;27;20421;-58
2022/05/25 11:07:56;;;;;;;4.40;3.03;;;;;;;26.38;39.65;101112.53;5131475;27;20529;-56
2022/05/25 11:10:40;;;;;;;4.78;3.00;;;;;;;26.34;39.67;101114.97;5131045;27;20907;-57
2022/05/25 11:13:24;;;;;;;4.20;2.70;;;;;;;26.50;39.55;101110.41;5131031;27;20913;-58
2022/05/25 11:16:01;;;;;;;5.03;2.80;;;;;;;26.45;39.66;101113.09;5130954;27;20493;-57
2022/05/25 11:18:48;;;;;;;5.13;3.00;;;;;;;26.40;39.88;101104.94;5130993;27;20505;-58
2022/05/25 11:21:26;;;;;;;4.05;3.20;;;;;;;26.46;39.94;101099.25;5131120;27;20437;-58
2022/05/25 11:24:13;;;;;;;4.50;2.97;;;;;;;26.31;39.71;101097.31;5131090;27;20422;-58
2022/05/25 11:26:57;;;;;;;4.03;2.80;;;;;;;26.53;39.47;101088.13;5131136;27;20402;-57
2022/05/25 11:29:38;;;;;;;4.83;2.73;;;;;;;26.59;39.71;101089.75;5130972;27;20402;-58
2022/05/25 11:32:22;;;;;;;4.35;3.17;;;;;;;26.56;39.61;101092.19;5131005;27;20921;-58
2022/05/25 11:35:11;;;;;;;5.43;3.13;;;;;;;26.48;40.03;101083.47;5130600;27;20903;-57
2022/05/25 11:37:49;;;;;;;5.63;3.20;;;;;;;26.55;39.87;101085.16;5131145;27;20410;-58
2022/05/25 11:40:25;;;;;;;4.07;2.88;;;;;;;26.61;39.33;101079.47;5130822;27;20462;-57
2022/05/25 11:43:16;;;;;;;3.55;3.00;;;;;;;26.47;39.65;101083.75;5130578;27;20402;-57
2022/05/25 11:45:57;;;;;;;4.10;3.10;;;;;;;26.69;39.79;101080.88;5130931;27;20428;-57
2022/05/25 11:48:42;;;;;;;5.32;3.15;;;;;;;27.02;39.41;101070.56;5130782;27;20405;-57
2022/05/25 11:51:21;;;;;;;4.23;3.03;;;;;;;27.38;38.35;101074.09;5130736;27;20398;-58
2022/05/25 11:54:11;;;;;;;4.35;3.47;;;;;;;27.51;38.07;101078.16;5130377;27;20790;-58
2022/05/25 11:56:52;;;;;;;5.50;3.10;;;;;;;26.99;38.91;101088.25;5130411;27;20484;-59
2022/05/25 11:59:54;;;;;;;5.93;3.50;;;;;;;26.79;38.90;101075.41;5130329;27;20926;-58
2022/05/25 12:02:38;;;;;;;5.30;3.08;;;;;;;27.12;38.39;101064.28;5130450;28;20409;-57
2022/05/25 12:05:18;;;;;;;3.30;2.85;;;;;;;27.18;38.39;101064.00;5130134;28;20990;-58
2022/05/25 12:08:05;;;;;;;6.95;3.00;;;;;;;27.12;38.86;101062.41;5130614;28;20416;-57
2022/05/25 12:10:34;;;;;;;3.60;3.00;;;;;;;27.33;38.17;101059.69;5109141;28;20406;-57
2022/05/25 12:13:11;;;;;;;6.50;3.13;;;;;;;27.51;37.89;101069.19;5130488;28;20488;-57